sensor_id;sensor_type;location;lat;lon;timestamp;pressure;altitude;pressure_sealevel;temperature;humidity
53522;BME280;39398;48.382;9.802;2023-04-07T00:00:17;93806.97;;;6.51;94.66
53522;BME280;39398;48.382;9.802;2023-04-07T00:05:20;93798.91;;;6.61;95.45
53522;BME280;39398;48.382;9.802;2023-04-07T00:10:22;93797.09;;;6.53;98.93
53522;BME280;39398;48.382;9.802;2023-04-07T00:15:24;93798.50;;;6.24;100.00
53522;BME280;39398;48.382;9.802;2023-04-07T00:20:26;93790.72;;;5.67;100.00
53522;BME280;39398;48.382;9.802;2023-04-07T00:25:28;93792.69;;;5.98;100.00
53522;BME280;39398;48.382;9.802;2023-04-07T00:30:30;93789.06;;;5.91;100.00
53522;BME280;39398;48.382;9.802;2023-04-07T00:35:32;93780.25;;;5.75;100.00
53522;BME280;39398;48.382;9.802;2023-04-07T00:40:34;93769.41;;;5.87;100.00
53522;BME280;39398;48.382;9.802;2023-04-07T00:45:36;93764.84;;;5.72;100.00
53522;BME280;39398;48.382;9.802;2023-04-07T00:50:39;93749.81;;;5.66;100.00
53522;BME280;39398;48.382;9.802;2023-04-07T00:55:40;93747.84;;;5.60;100.00
53522;BME280;39398;48.382;9.802;2023-04-07T01:00:49;93736.41;;;5.36;100.00
53522;BME280;39398;48.382;9.802;2023-04-07T01:05:54;93734.63;;;5.37;100.00
53522;BME280;39398;48.382;9.802;2023-04-07T01:11:04;93726.41;;;4.99;100.00
53522;BME280;39398;48.382;9.802;2023-04-07T01:16:12;93720.22;;;5.25;100.00
53522;BME280;39398;48.382;9.802;2023-04-07T01:21:18;93713.47;;;5.63;100.00
53522;BME280;39398;48.382;9.802;2023-04-07T01:26:23;93712.03;;;5.36;100.00
53522;BME280;39398;48.382;9.802;2023-04-07T01:31:28;93697.47;;;5.50;100.00
53522;BME280;39398;48.382;9.802;2023-04-07T01:36:32;93703.81;;;5.64;100.00
53522;BME280;39398;48.382;9.802;2023-04-07T01:41:34;93703.03;;;5.22;100.00
53522;BME280;39398;48.382;9.802;2023-04-07T01:46:39;93698.94;;;5.44;100.00
53522;BME280;39398;48.382;9.802;2023-04-07T01:51:41;93695.81;;;5.41;100.00
53522;BME280;39398;48.382;9.802;2023-04-07T01:56:43;93693.22;;;5.49;100.00
53522;BME280;39398;48.382;9.802;2023-04-07T02:01:46;93679.94;;;5.58;100.00
53522;BME280;39398;48.382;9.802;2023-04-07T02:06:53;93683.22;;;5.44;100.00
53522;BME280;39398;48.382;9.802;2023-04-07T02:11:57;93679.09;;;5.58;100.00
53522;BME280;39398;48.382;9.802;2023-04-07T02:17:02;93676.19;;;5.53;100.00
53522;BME280;39398;48.382;9.802;2023-04-07T02:22:04;93675.81;;;5.64;100.00
53522;BME280;39398;48.382;9.802;2023-04-07T02:27:07;93667.75;;;5.74;100.00
53522;BME280;39398;48.382;9.802;2023-04-07T02:32:09;93656.25;;;5.91;100.00
53522;BME280;39398;48.382;9.802;2023-04-07T02:37:11;93657.72;;;6.02;100.00
53522;BME280;39398;48.382;9.802;2023-04-07T02:42:13;93658.41;;;5.88;100.00
53522;BME280;39398;48.382;9.802;2023-04-07T02:47:15;93650.63;;;5.55;100.00
53522;BME280;39398;48.382;9.802;2023-04-07T02:52:17;93644.16;;;5.82;100.00
53522;BME280;39398;48.382;9.802;2023-04-07T02:57:19;93642.44;;;5.66;100.00
53522;BME280;39398;48.382;9.802;2023-04-07T03:02:22;93634.22;;;5.69;100.00
53522;BME280;39398;48.382;9.802;2023-04-07T03:07:23;93621.94;;;5.78;100.00
53522;BME280;39398;48.382;9.802;2023-04-07T03:12:25;93620.72;;;5.89;100.00
53522;BME280;39398;48.382;9.802;2023-04-07T03:17:28;93614.03;;;5.86;100.00
53522;BME280;39398;48.382;9.802;2023-04-07T03:22:29;93612.03;;;5.96;100.00
53522;BME280;39398;48.382;9.802;2023-04-07T03:27:31;93600.84;;;5.71;100.00
53522;BME280;39398;48.382;9.802;2023-04-07T03:32:34;93607.25;;;5.60;100.00
53522;BME280;39398;48.382;9.802;2023-04-07T03:37:35;93602.53;;;5.56;100.00
53522;BME280;39398;48.382;9.802;2023-04-07T03:42:37;93599.78;;;5.49;100.00
53522;BME280;39398;48.382;9.802;2023-04-07T03:47:40;93606.44;;;5.52;100.00
53522;BME280;39398;48.382;9.802;2023-04-07T03:52:41;93598.59;;;5.52;100.00
53522;BME280;39398;48.382;9.802;2023-04-07T03:57:43;93593.25;;;5.37;100.00
53522;BME280;39398;48.382;9.802;2023-04-07T04:02:46;93586.22;;;5.29;100.00
53522;BME280;39398;48.382;9.802;2023-04-07T04:07:48;93587.97;;;5.53;100.00
53522;BME280;39398;48.382;9.802;2023-04-07T04:12:49;93585.41;;;5.76;100.00
53522;BME280;39398;48.382;9.802;2023-04-07T04:17:52;93585.75;;;5.73;100.00
53522;BME280;39398;48.382;9.802;2023-04-07T04:22:54;93581.88;;;5.61;100.00
53522;BME280;39398;48.382;9.802;2023-04-07T04:27:55;93583.19;;;5.57;100.00
53522;BME280;39398;48.382;9.802;2023-04-07T04:32:58;93576.28;;;5.72;100.00
53522;BME280;39398;48.382;9.802;2023-04-07T04:37:59;93575.19;;;5.58;100.00
53522;BME280;39398;48.382;9.802;2023-04-07T04:43:01;93577.47;;;5.62;100.00
53522;BME280;39398;48.382;9.802;2023-04-07T04:48:04;93573.84;;;5.63;100.00
53522;BME280;39398;48.382;9.802;2023-04-07T04:53:06;93576.44;;;5.71;100.00
53522;BME280;39398;48.382;9.802;2023-04-07T04:58:07;93574.34;;;5.66;100.00
53522;BME280;39398;48.382;9.802;2023-04-07T05:03:10;93572.44;;;5.83;100.00
53522;BME280;39398;48.382;9.802;2023-04-07T05:08:12;93574.97;;;5.12;100.00
53522;BME280;39398;48.382;9.802;2023-04-07T05:13:14;93576.56;;;5.38;100.00
53522;BME280;39398;48.382;9.802;2023-04-07T05:18:17;93581.50;;;5.25;100.00
53522;BME280;39398;48.382;9.802;2023-04-07T05:23:18;93573.13;;;5.46;100.00
53522;BME280;39398;48.382;9.802;2023-04-07T05:28:20;93573.25;;;5.52;100.00
53522;BME280;39398;48.382;9.802;2023-04-07T05:33:23;93575.13;;;5.75;100.00
53522;BME280;39398;48.382;9.802;2023-04-07T05:38:24;93572.16;;;5.78;100.00
53522;BME280;39398;48.382;9.802;2023-04-07T05:43:26;93565.59;;;5.82;100.00
53522;BME280;39398;48.382;9.802;2023-04-07T05:48:29;93572.19;;;5.70;100.00
53522;BME280;39398;48.382;9.802;2023-04-07T05:53:30;93571.78;;;5.50;100.00
53522;BME280;39398;48.382;9.802;2023-04-07T05:58:32;93573.53;;;5.66;100.00
53522;BME280;39398;48.382;9.802;2023-04-07T06:03:35;93575.41;;;5.80;100.00
53522;BME280;39398;48.382;9.802;2023-04-07T06:08:37;93582.97;;;5.27;100.00
53522;BME280;39398;48.382;9.802;2023-04-07T06:13:38;93578.63;;;5.51;100.00
53522;BME280;39398;48.382;9.802;2023-04-07T06:18:41;93566.69;;;5.56;100.00
53522;BME280;39398;48.382;9.802;2023-04-07T06:23:42;93563.94;;;6.20;100.00
53522;BME280;39398;48.382;9.802;2023-04-07T06:28:44;93573.56;;;4.77;100.00
53522;BME280;39398;48.382;9.802;2023-04-07T06:33:47;93584.38;;;4.58;100.00
53522;BME280;39398;48.382;9.802;2023-04-07T06:38:49;93588.91;;;4.23;100.00
53522;BME280;39398;48.382;9.802;2023-04-07T06:43:50;93586.63;;;4.53;100.00
53522;BME280;39398;48.382;9.802;2023-04-07T06:48:53;93583.38;;;4.34;100.00
53522;BME280;39398;48.382;9.802;2023-04-07T06:53:55;93593.50;;;4.70;100.00
53522;BME280;39398;48.382;9.802;2023-04-07T06:58:56;93584.13;;;5.33;100.00
53522;BME280;39398;48.382;9.802;2023-04-07T07:03:59;93579.56;;;5.74;100.00
53522;BME280;39398;48.382;9.802;2023-04-07T07:09:02;93577.00;;;5.97;100.00
53522;BME280;39398;48.382;9.802;2023-04-07T07:14:04;93587.06;;;6.40;100.00
53522;BME280;39398;48.382;9.802;2023-04-07T07:19:06;93590.03;;;6.60;100.00
53522;BME280;39398;48.382;9.802;2023-04-07T07:24:08;93579.31;;;6.92;100.00
53522;BME280;39398;48.382;9.802;2023-04-07T07:29:09;93568.94;;;7.29;100.00
53522;BME280;39398;48.382;9.802;2023-04-07T07:34:12;93559.38;;;6.83;100.00
53522;BME280;39398;48.382;9.802;2023-04-07T07:39:14;93565.22;;;7.53;100.00
53522;BME280;39398;48.382;9.802;2023-04-07T07:44:16;93565.84;;;7.55;100.00
53522;BME280;39398;48.382;9.802;2023-04-07T07:49:21;93557.91;;;7.48;100.00
53522;BME280;39398;48.382;9.802;2023-04-07T07:54:22;93564.00;;;8.00;100.00
53522;BME280;39398;48.382;9.802;2023-04-07T07:59:24;93560.91;;;8.47;95.25
53522;BME280;39398;48.382;9.802;2023-04-07T08:04:27;93560.75;;;9.54;87.96
53522;BME280;39398;48.382;9.802;2023-04-07T08:09:29;93560.94;;;9.94;82.30
53522;BME280;39398;48.382;9.802;2023-04-07T08:14:30;93564.22;;;10.71;80.48
53522;BME280;39398;48.382;9.802;2023-04-07T08:19:33;93573.19;;;11.16;79.49
53522;BME280;39398;48.382;9.802;2023-04-07T08:24:35;93567.88;;;10.57;75.06
53522;BME280;39398;48.382;9.802;2023-04-07T08:29:36;93572.03;;;10.24;86.31
53522;BME280;39398;48.382;9.802;2023-04-07T08:34:39;93574.97;;;10.01;88.21
53522;BME280;39398;48.382;9.802;2023-04-07T08:39:41;93577.84;;;9.09;91.64
53522;BME280;39398;48.382;9.802;2023-04-07T08:44:43;93579.19;;;8.98;89.87
53522;BME280;39398;48.382;9.802;2023-04-07T08:49:51;93580.56;;;9.16;99.91
53522;BME280;39398;48.382;9.802;2023-04-07T08:54:52;93583.41;;;8.50;100.00
53522;BME280;39398;48.382;9.802;2023-04-07T08:59:55;93583.06;;;7.72;100.00
53522;BME280;39398;48.382;9.802;2023-04-07T09:04:58;93591.97;;;8.22;100.00
53522;BME280;39398;48.382;9.802;2023-04-07T09:10:00;93592.38;;;7.89;100.00
53522;BME280;39398;48.382;9.802;2023-04-07T09:15:05;93584.41;;;7.68;100.00
53522;BME280;39398;48.382;9.802;2023-04-07T09:20:09;93592.56;;;7.88;100.00
53522;BME280;39398;48.382;9.802;2023-04-07T09:25:13;93584.41;;;7.98;100.00
53522;BME280;39398;48.382;9.802;2023-04-07T09:30:15;93585.00;;;8.14;100.00
53522;BME280;39398;48.382;9.802;2023-04-07T09:35:18;93584.06;;;8.22;100.00
53522;BME280;39398;48.382;9.802;2023-04-07T09:40:24;93581.22;;;8.75;100.00
53522;BME280;39398;48.382;9.802;2023-04-07T09:45:28;93592.13;;;8.72;100.00
53522;BME280;39398;48.382;9.802;2023-04-07T09:50:35;93578.06;;;9.70;87.39
53522;BME280;39398;48.382;9.802;2023-04-07T09:55:38;93577.25;;;9.35;99.86
53522;BME280;39398;48.382;9.802;2023-04-07T10:00:40;93577.16;;;9.57;98.57
53522;BME280;39398;48.382;9.802;2023-04-07T10:05:44;93578.75;;;8.95;97.67
53522;BME280;39398;48.382;9.802;2023-04-07T10:10:47;93574.66;;;8.92;99.39
53522;BME280;39398;48.382;9.802;2023-04-07T10:15:48;93577.56;;;10.36;83.39
53522;BME280;39398;48.382;9.802;2023-04-07T10:20:52;93576.53;;;10.31;81.99
53522;BME280;39398;48.382;9.802;2023-04-07T10:25:55;93574.53;;;10.39;81.67
53522;BME280;39398;48.382;9.802;2023-04-07T10:30:59;93580.69;;;10.66;78.77
53522;BME280;39398;48.382;9.802;2023-04-07T10:36:05;93576.66;;;10.84;77.44
53522;BME280;39398;48.382;9.802;2023-04-07T10:41:31;93579.50;;;10.89;73.87
53522;BME280;39398;48.382;9.802;2023-04-07T10:47:03;93575.59;;;10.65;72.05
53522;BME280;39398;48.382;9.802;2023-04-07T10:52:22;93576.84;;;10.69;74.17
53522;BME280;39398;48.382;9.802;2023-04-07T10:57:24;93579.91;;;10.18;77.30
53522;BME280;39398;48.382;9.802;2023-04-07T11:02:30;93582.16;;;10.89;73.56
53522;BME280;39398;48.382;9.802;2023-04-07T11:07:44;93581.66;;;9.63;82.52
53522;BME280;39398;48.382;9.802;2023-04-07T11:13:00;93588.47;;;8.51;98.60
53522;BME280;39398;48.382;9.802;2023-04-07T11:18:13;93578.69;;;9.44;87.61
53522;BME280;39398;48.382;9.802;2023-04-07T11:23:17;93587.19;;;10.16;89.05
53522;BME280;39398;48.382;9.802;2023-04-07T11:28:19;93585.56;;;10.63;88.31
53522;BME280;39398;48.382;9.802;2023-04-07T11:33:22;93590.56;;;10.38;86.68
53522;BME280;39398;48.382;9.802;2023-04-07T11:38:26;93584.53;;;10.09;85.84
53522;BME280;39398;48.382;9.802;2023-04-07T11:43:28;93592.47;;;10.16;86.56
53522;BME280;39398;48.382;9.802;2023-04-07T11:48:31;93586.97;;;10.11;86.02
53522;BME280;39398;48.382;9.802;2023-04-07T11:53:35;93596.09;;;10.56;85.51
53522;BME280;39398;48.382;9.802;2023-04-07T11:58:38;93604.88;;;8.53;100.00
53522;BME280;39398;48.382;9.802;2023-04-07T12:03:57;93594.84;;;7.32;100.00
53522;BME280;39398;48.382;9.802;2023-04-07T12:09:02;93608.31;;;6.91;100.00
53522;BME280;39398;48.382;9.802;2023-04-07T12:14:03;93613.94;;;6.65;100.00
53522;BME280;39398;48.382;9.802;2023-04-07T12:19:05;93621.34;;;6.61;100.00
53522;BME280;39398;48.382;9.802;2023-04-07T12:24:08;93617.94;;;6.29;100.00
53522;BME280;39398;48.382;9.802;2023-04-07T12:29:10;93627.88;;;6.11;100.00
53522;BME280;39398;48.382;9.802;2023-04-07T12:34:11;93630.88;;;6.31;100.00
53522;BME280;39398;48.382;9.802;2023-04-07T12:39:14;93624.19;;;6.74;100.00
53522;BME280;39398;48.382;9.802;2023-04-07T12:44:16;93623.41;;;6.89;100.00
53522;BME280;39398;48.382;9.802;2023-04-07T12:49:17;93623.03;;;7.00;100.00
53522;BME280;39398;48.382;9.802;2023-04-07T12:54:20;93618.66;;;7.45;100.00
53522;BME280;39398;48.382;9.802;2023-04-07T12:59:22;93619.28;;;7.32;100.00
53522;BME280;39398;48.382;9.802;2023-04-07T13:04:23;93619.84;;;7.42;100.00
53522;BME280;39398;48.382;9.802;2023-04-07T13:09:27;93616.22;;;7.43;100.00
53522;BME280;39398;48.382;9.802;2023-04-07T13:14:28;93613.72;;;7.12;100.00
53522;BME280;39398;48.382;9.802;2023-04-07T13:19:30;93622.00;;;7.39;100.00
53522;BME280;39398;48.382;9.802;2023-04-07T13:24:33;93612.59;;;7.74;100.00
53522;BME280;39398;48.382;9.802;2023-04-07T13:29:34;93616.13;;;7.96;100.00
53522;BME280;39398;48.382;9.802;2023-04-07T13:34:36;93609.50;;;8.00;96.47
53522;BME280;39398;48.382;9.802;2023-04-07T13:39:39;93612.63;;;8.40;96.12
53522;BME280;39398;48.382;9.802;2023-04-07T13:44:40;93619.41;;;8.71;90.59
53522;BME280;39398;48.382;9.802;2023-04-07T13:49:42;93620.81;;;8.88;76.84
53522;BME280;39398;48.382;9.802;2023-04-07T13:54:45;93610.88;;;8.32;91.13
53522;BME280;39398;48.382;9.802;2023-04-07T13:59:47;93611.69;;;7.97;100.00
53522;BME280;39398;48.382;9.802;2023-04-07T14:04:50;93605.00;;;7.79;100.00
53522;BME280;39398;48.382;9.802;2023-04-07T14:09:53;93606.16;;;7.62;100.00
53522;BME280;39398;48.382;9.802;2023-04-07T14:14:55;93611.16;;;7.72;100.00
53522;BME280;39398;48.382;9.802;2023-04-07T14:19:56;93602.91;;;7.75;100.00
53522;BME280;39398;48.382;9.802;2023-04-07T14:24:59;93606.63;;;7.95;100.00
53522;BME280;39398;48.382;9.802;2023-04-07T14:30:01;93603.34;;;7.93;91.34
53522;BME280;39398;48.382;9.802;2023-04-07T14:35:02;93610.88;;;8.47;92.03
53522;BME280;39398;48.382;9.802;2023-04-07T14:40:07;93605.63;;;8.47;97.88
53522;BME280;39398;48.382;9.802;2023-04-07T14:45:09;93608.91;;;8.34;98.63
53522;BME280;39398;48.382;9.802;2023-04-07T14:50:11;93596.22;;;8.38;100.00
53522;BME280;39398;48.382;9.802;2023-04-07T14:55:14;93607.78;;;8.58;99.17
53522;BME280;39398;48.382;9.802;2023-04-07T15:00:15;93606.16;;;8.79;100.00
53522;BME280;39398;48.382;9.802;2023-04-07T15:05:17;93601.47;;;9.24;94.37
53522;BME280;39398;48.382;9.802;2023-04-07T15:10:20;93598.59;;;9.47;92.67
53522;BME280;39398;48.382;9.802;2023-04-07T15:15:23;93602.09;;;9.54;84.46
53522;BME280;39398;48.382;9.802;2023-04-07T15:20:24;93608.19;;;9.26;89.54
53522;BME280;39398;48.382;9.802;2023-04-07T15:25:27;93610.47;;;9.64;89.29
53522;BME280;39398;48.382;9.802;2023-04-07T15:30:29;93615.34;;;9.67;94.04
53522;BME280;39398;48.382;9.802;2023-04-07T15:35:30;93611.78;;;9.82;90.72
53522;BME280;39398;48.382;9.802;2023-04-07T15:40:34;93605.69;;;9.81;89.71
53522;BME280;39398;48.382;9.802;2023-04-07T15:45:39;93626.63;;;9.05;88.48
53522;BME280;39398;48.382;9.802;2023-04-07T15:50:41;93626.19;;;9.23;95.34
53522;BME280;39398;48.382;9.802;2023-04-07T15:55:44;93623.53;;;9.79;88.24
53522;BME280;39398;48.382;9.802;2023-04-07T16:00:45;93624.03;;;9.61;90.87
53522;BME280;39398;48.382;9.802;2023-04-07T16:05:47;93633.31;;;9.57;88.02
53522;BME280;39398;48.382;9.802;2023-04-07T16:10:50;93623.00;;;9.90;83.53
53522;BME280;39398;48.382;9.802;2023-04-07T16:15:54;93634.31;;;10.25;80.65
53522;BME280;39398;48.382;9.802;2023-04-07T16:20:55;93639.50;;;10.06;77.89
53522;BME280;39398;48.382;9.802;2023-04-07T16:25:58;93635.50;;;10.16;77.58
53522;BME280;39398;48.382;9.802;2023-04-07T16:31:00;93640.91;;;10.08;78.75
53522;BME280;39398;48.382;9.802;2023-04-07T16:36:02;93642.50;;;10.31;78.64
53522;BME280;39398;48.382;9.802;2023-04-07T16:41:07;93641.75;;;10.09;82.92
53522;BME280;39398;48.382;9.802;2023-04-07T16:46:08;93664.22;;;8.77;97.47
53522;BME280;39398;48.382;9.802;2023-04-07T16:51:15;93664.09;;;7.98;100.00
53522;BME280;39398;48.382;9.802;2023-04-07T16:56:19;93674.41;;;8.14;100.00
53522;BME280;39398;48.382;9.802;2023-04-07T17:01:20;93686.72;;;7.99;100.00
53522;BME280;39398;48.382;9.802;2023-04-07T17:06:22;93696.88;;;8.02;100.00
53522;BME280;39398;48.382;9.802;2023-04-07T17:11:25;93705.50;;;8.41;100.00
53522;BME280;39398;48.382;9.802;2023-04-07T17:16:26;93714.94;;;8.05;100.00
53522;BME280;39398;48.382;9.802;2023-04-07T17:21:28;93724.25;;;8.23;100.00
53522;BME280;39398;48.382;9.802;2023-04-07T17:26:31;93722.91;;;8.56;100.00
53522;BME280;39398;48.382;9.802;2023-04-07T17:31:32;93728.75;;;8.73;100.00
53522;BME280;39398;48.382;9.802;2023-04-07T17:36:34;93731.69;;;8.64;100.00
53522;BME280;39398;48.382;9.802;2023-04-07T17:41:37;93734.38;;;8.49;100.00
53522;BME280;39398;48.382;9.802;2023-04-07T17:46:39;93738.19;;;8.82;100.00
53522;BME280;39398;48.382;9.802;2023-04-07T17:51:40;93757.19;;;8.63;100.00
53522;BME280;39398;48.382;9.802;2023-04-07T17:56:43;93756.44;;;8.84;100.00
53522;BME280;39398;48.382;9.802;2023-04-07T18:01:45;93772.34;;;8.61;100.00
53522;BME280;39398;48.382;9.802;2023-04-07T18:06:46;93777.72;;;8.53;100.00
53522;BME280;39398;48.382;9.802;2023-04-07T18:11:49;93782.31;;;8.36;100.00
53522;BME280;39398;48.382;9.802;2023-04-07T18:16:51;93796.28;;;8.51;100.00
53522;BME280;39398;48.382;9.802;2023-04-07T18:21:52;93790.09;;;8.14;100.00
53522;BME280;39398;48.382;9.802;2023-04-07T18:26:55;93805.31;;;8.04;100.00
53522;BME280;39398;48.382;9.802;2023-04-07T18:31:57;93817.09;;;8.08;100.00
53522;BME280;39398;48.382;9.802;2023-04-07T18:36:59;93819.13;;;7.83;100.00
53522;BME280;39398;48.382;9.802;2023-04-07T18:42:02;93826.91;;;7.77;100.00
53522;BME280;39398;48.382;9.802;2023-04-07T18:47:04;93824.78;;;7.72;100.00
53522;BME280;39398;48.382;9.802;2023-04-07T18:52:06;93823.34;;;7.69;100.00
53522;BME280;39398;48.382;9.802;2023-04-07T18:57:08;93840.06;;;8.14;100.00
53522;BME280;39398;48.382;9.802;2023-04-07T19:02:10;93840.63;;;8.25;100.00
53522;BME280;39398;48.382;9.802;2023-04-07T19:07:12;93849.00;;;8.05;100.00
53522;BME280;39398;48.382;9.802;2023-04-07T19:12:14;93849.25;;;7.96;100.00
53522;BME280;39398;48.382;9.802;2023-04-07T19:17:16;93846.22;;;7.84;100.00
53522;BME280;39398;48.382;9.802;2023-04-07T19:22:18;93843.09;;;8.03;100.00
53522;BME280;39398;48.382;9.802;2023-04-07T19:27:21;93843.19;;;7.95;100.00
53522;BME280;39398;48.382;9.802;2023-04-07T19:32:22;93845.81;;;7.95;100.00
53522;BME280;39398;48.382;9.802;2023-04-07T19:37:24;93849.41;;;7.79;100.00
53522;BME280;39398;48.382;9.802;2023-04-07T19:42:27;93850.72;;;7.75;100.00
53522;BME280;39398;48.382;9.802;2023-04-07T19:47:29;93858.38;;;7.85;100.00
53522;BME280;39398;48.382;9.802;2023-04-07T19:52:31;93856.28;;;7.80;100.00
53522;BME280;39398;48.382;9.802;2023-04-07T19:57:34;93861.53;;;7.80;100.00
53522;BME280;39398;48.382;9.802;2023-04-07T20:02:35;93861.22;;;7.75;100.00
53522;BME280;39398;48.382;9.802;2023-04-07T20:07:37;93865.56;;;7.68;100.00
53522;BME280;39398;48.382;9.802;2023-04-07T20:12:40;93855.00;;;7.76;100.00
53522;BME280;39398;48.382;9.802;2023-04-07T20:17:42;93859.75;;;7.50;100.00
53522;BME280;39398;48.382;9.802;2023-04-07T20:22:43;93870.19;;;7.04;100.00
53522;BME280;39398;48.382;9.802;2023-04-07T20:27:46;93869.34;;;7.42;100.00
53522;BME280;39398;48.382;9.802;2023-04-07T20:32:48;93861.66;;;7.41;100.00
53522;BME280;39398;48.382;9.802;2023-04-07T20:37:49;93867.03;;;7.48;100.00
53522;BME280;39398;48.382;9.802;2023-04-07T20:42:52;93876.38;;;7.50;100.00
53522;BME280;39398;48.382;9.802;2023-04-07T20:47:54;93881.69;;;7.34;100.00
53522;BME280;39398;48.382;9.802;2023-04-07T20:52:55;93882.09;;;6.83;100.00
53522;BME280;39398;48.382;9.802;2023-04-07T20:57:58;93885.00;;;6.41;100.00
53522;BME280;39398;48.382;9.802;2023-04-07T21:03:00;93892.22;;;6.31;100.00
53522;BME280;39398;48.382;9.802;2023-04-07T21:08:02;93892.22;;;5.90;100.00
53522;BME280;39398;48.382;9.802;2023-04-07T21:13:05;93896.50;;;5.91;100.00
53522;BME280;39398;48.382;9.802;2023-04-07T21:18:06;93899.59;;;5.78;100.00
53522;BME280;39398;48.382;9.802;2023-04-07T21:23:08;93895.66;;;5.66;100.00
53522;BME280;39398;48.382;9.802;2023-04-07T21:28:11;93894.81;;;5.73;100.00
53522;BME280;39398;48.382;9.802;2023-04-07T21:33:12;93908.25;;;5.62;100.00
53522;BME280;39398;48.382;9.802;2023-04-07T21:38:14;93902.03;;;5.63;100.00
53522;BME280;39398;48.382;9.802;2023-04-07T21:43:17;93901.16;;;5.38;100.00
53522;BME280;39398;48.382;9.802;2023-04-07T21:48:19;93900.63;;;5.26;100.00
53522;BME280;39398;48.382;9.802;2023-04-07T21:53:20;93906.75;;;5.43;100.00
53522;BME280;39398;48.382;9.802;2023-04-07T21:58:23;93915.38;;;5.27;100.00
53522;BME280;39398;48.382;9.802;2023-04-07T22:03:25;93917.44;;;5.07;100.00
53522;BME280;39398;48.382;9.802;2023-04-07T22:08:26;93915.41;;;5.44;100.00
53522;BME280;39398;48.382;9.802;2023-04-07T22:13:30;93911.44;;;5.23;100.00
53522;BME280;39398;48.382;9.802;2023-04-07T22:18:31;93913.22;;;5.15;100.00
53522;BME280;39398;48.382;9.802;2023-04-07T22:23:33;93922.06;;;5.22;100.00
53522;BME280;39398;48.382;9.802;2023-04-07T22:28:36;93918.31;;;5.32;100.00
53522;BME280;39398;48.382;9.802;2023-04-07T22:33:37;93914.03;;;5.15;100.00
53522;BME280;39398;48.382;9.802;2023-04-07T22:38:39;93918.31;;;5.32;100.00
53522;BME280;39398;48.382;9.802;2023-04-07T22:43:42;93907.94;;;5.73;100.00
53522;BME280;39398;48.382;9.802;2023-04-07T22:48:43;93903.69;;;5.72;100.00
53522;BME280;39398;48.382;9.802;2023-04-07T22:53:45;93912.19;;;5.66;100.00
53522;BME280;39398;48.382;9.802;2023-04-07T22:58:48;93909.06;;;5.71;100.00
53522;BME280;39398;48.382;9.802;2023-04-07T23:03:50;93898.59;;;5.79;100.00
53522;BME280;39398;48.382;9.802;2023-04-07T23:08:51;93899.44;;;5.88;100.00
53522;BME280;39398;48.382;9.802;2023-04-07T23:13:54;93898.81;;;5.94;100.00
53522;BME280;39398;48.382;9.802;2023-04-07T23:18:56;93910.41;;;5.91;100.00
53522;BME280;39398;48.382;9.802;2023-04-07T23:23:57;93911.19;;;5.83;100.00
53522;BME280;39398;48.382;9.802;2023-04-07T23:29:00;93922.00;;;5.72;100.00
53522;BME280;39398;48.382;9.802;2023-04-07T23:34:03;93922.00;;;5.72;100.00
53522;BME280;39398;48.382;9.802;2023-04-07T23:39:04;93918.72;;;5.70;100.00
53522;BME280;39398;48.382;9.802;2023-04-07T23:44:07;93923.28;;;5.52;100.00
53522;BME280;39398;48.382;9.802;2023-04-07T23:49:09;93925.53;;;5.30;100.00
53522;BME280;39398;48.382;9.802;2023-04-07T23:54:10;93923.72;;;5.39;100.00
53522;BME280;39398;48.382;9.802;2023-04-07T23:59:13;93918.50;;;5.39;100.00
